Time;durP1;ratioP1;P1;durP2;ratioP2;P2;SDS_P1;SDS_P2;PMS_P1;PMS_P2;Temp;Humidity;BMP_temperature;BMP_pressure;BME280_temperature;BME280_humidity;BME280_pressure;Samples;Min_cycle;Max_cycle;Signal;HPM_P1;HPM_P2
2022/09/16 00:01:20;;;;;;;;;;;;;;;;;;5036074;28;7440;-87
2022/09/16 00:03:46;;;;;;;;;;;;;;;;;;5036135;28;8325;-87
2022/09/16 00:06:17;;;;;;;;;;;;;;;;;;5036159;28;7030;-86
2022/09/16 00:08:44;;;;;;;;;;;;;;;;;;5036368;28;8459;-86
2022/09/16 00:11:10;;;;;;;;;;;;;;;;;;5036106;28;7184;-85
2022/09/16 00:13:35;;;;;;;;;;;;;;;;;;5035649;28;8366;-85
2022/09/16 00:16:05;;;;;;;;;;;;;;;;;;5035779;28;7158;-86
2022/09/16 00:18:31;;;;;;;;;;;;;;;;;;5035875;28;6882;-85
2022/09/16 00:20:56;;;;;;;;;;;;;;;;;;5035795;28;7098;-86
2022/09/16 00:23:22;;;;;;;;;;;;;;;;;;5035829;28;8299;-87
2022/09/16 00:25:51;;;;;;;;;;;;;;;;;;5035769;28;8458;-86
2022/09/16 00:28:18;;;;;;;;;;;;;;;;;;5035713;28;7155;-87
2022/09/16 00:30:43;;;;;;;;;;;;;;;;;;5035835;28;7189;-86
2022/09/16 00:33:09;;;;;;;;;;;;;;;;;;5035513;28;8611;-85
2022/09/16 00:35:34;;;;;;;;;;;;;;;;;;5036230;28;8310;-85
2022/09/16 00:38:00;;;;;;;;;;;;;;;;;;5035149;28;7104;-85
2022/09/16 00:40:25;;;;;;;;;;;;;;;;;;5035052;28;7019;-86
2022/09/16 00:42:51;;;;;;;;;;;;;;;;;;5035561;28;8368;-86
2022/09/16 00:45:19;;;;;;;;;;;;;;;;;;5035224;28;7314;-86
2022/09/16 00:47:48;;;;;;;;;;;;;;;;;;5035711;28;6856;-86
2022/09/16 00:50:21;;;;;;;;;;;;;;;;;;5034950;28;7231;-86
2022/09/16 00:52:48;;;;;;;;;;;;;;;;;;5035301;28;8322;-87
2022/09/16 00:55:17;;;;;;;;;;;;;;;;;;5035152;28;7321;-86
2022/09/16 00:57:44;;;;;;;;;;;;;;;;;;5034876;28;7048;-84
2022/09/16 01:00:12;;;;;;;;;;;;;;;;;;5034893;28;8287;-86
2022/09/16 01:02:39;;;;;;;;;;;;;;;;;;5034921;28;7152;-86
2022/09/16 01:05:07;;;;;;;;;;;;;;;;;;5035303;28;7049;-86
2022/09/16 01:07:53;;;;;;;;;;;;;;;;;;5035449;28;7906;-86
2022/09/16 01:10:21;;;;;;;;;;;;;;;;;;5034518;28;7251;-86
2022/09/16 01:12:59;;;;;;;;;;;;;;;;;;5034439;28;7851;-86
2022/09/16 01:15:31;;;;;;;;;;;;;;;;;;5035851;28;7555;-86
2022/09/16 01:18:24;;;;;;;;;;;;;;;;;;5035320;28;7208;-86
2022/09/16 01:21:01;;;;;;;;;;;;;;;;;;5030477;28;7205;-85
2022/09/16 01:23:45;;;;;;;;;;;;;;;;;;5034363;28;8555;-85
2022/09/16 01:26:23;;;;;;;;;;;;;;;;;;5034531;28;8519;-85
2022/09/16 01:29:07;;;;;;;;;;;;;;;;;;5035047;28;7346;-84
2022/09/16 01:31:37;;;;;;;;;;;;;;;;;;5034094;28;8809;-86
2022/09/16 01:34:15;;;;;;;;;;;;;;;;;;5034361;28;7057;-87
2022/09/16 01:37:00;;;;;;;;;;;;;;;;;;5034852;28;7123;-86
2022/09/16 01:39:25;;;;;;;;;;;;;;;;;;5034204;28;7210;-86
2022/09/16 01:41:57;;;;;;;;;;;;;;;;;;5033766;28;7171;-86
2022/09/16 01:44:34;;;;;;;;;;;;;;;;;;5034573;28;8745;-85
2022/09/16 01:47:09;;;;;;;;;;;;;;;;;;5033776;28;7214;-85
2022/09/16 01:49:43;;;;;;;;;;;;;;;;;;5034698;28;7174;-86
2022/09/16 01:52:09;;;;;;;;;;;;;;;;;;5034338;28;8506;-87
2022/09/16 01:54:34;;;;;;;;;;;;;;;;;;5034188;28;7152;-85
2022/09/16 01:57:05;;;;;;;;;;;;;;;;;;5034477;28;8310;-84
2022/09/16 01:59:38;;;;;;;;;;;;;;;;;;5034471;28;7162;-86
2022/09/16 02:02:19;;;;;;;;;;;;;;;;;;5033825;28;8330;-86
2022/09/16 02:04:50;;;;;;;;;;;;;;;;;;5034307;28;8689;-85
2022/09/16 02:07:19;;;;;;;;;;;;;;;;;;5034527;28;7054;-86
2022/09/16 02:09:50;;;;;;;;;;;;;;;;;;5033986;28;7175;-86
2022/09/16 02:12:22;;;;;;;;;;;;;;;;;;5034174;28;8624;-86
2022/09/16 02:14:51;;;;;;;;;;;;;;;;;;5034917;28;7417;-86
2022/09/16 02:17:20;;;;;;;;;;;;;;;;;;5034785;28;6924;-86
2022/09/16 02:19:52;;;;;;;;;;;;;;;;;;5033953;28;8392;-85
2022/09/16 02:22:24;;;;;;;;;;;;;;;;;;5034671;28;7161;-86
2022/09/16 02:24:51;;;;;;;;;;;;;;;;;;5033992;28;8486;-87
2022/09/16 02:27:21;;;;;;;;;;;;;;;;;;5034072;28;8455;-86
2022/09/16 02:29:51;;;;;;;;;;;;;;;;;;5033732;28;8426;-87
2022/09/16 02:32:20;;;;;;;;;;;;;;;;;;5033990;28;8428;-85
2022/09/16 02:34:48;;;;;;;;;;;;;;;;;;5033602;28;7181;-86
2022/09/16 02:37:17;;;;;;;;;;;;;;;;;;5036374;28;7179;-86
2022/09/16 02:39:47;;;;;;;;;;;;;;;;;;5037312;28;6818;-86
2022/09/16 02:42:13;;;;;;;;;;;;;;;;;;5037458;28;7038;-86
2022/09/16 02:44:39;;;;;;;;;;;;;;;;;;5037656;28;8375;-86
2022/09/16 02:47:05;;;;;;;;;;;;;;;;;;5037341;28;6860;-85
2022/09/16 02:49:30;;;;;;;;;;;;;;;;;;5037520;28;7008;-87
2022/09/16 02:51:56;;;;;;;;;;;;;;;;;;5038025;28;7235;-85
2022/09/16 02:54:22;;;;;;;;;;;;;;;;;;5037144;28;7151;-85
2022/09/16 02:56:47;;;;;;;;;;;;;;;;;;5037503;28;8507;-87
2022/09/16 02:59:15;;;;;;;;;;;;;;;;;;5037420;28;7237;-87
2022/09/16 03:01:42;;;;;;;;;;;;;;;;;;5037117;28;7044;-86
2022/09/16 03:04:08;;;;;;;;;;;;;;;;;;5037196;28;8913;-86
2022/09/16 03:06:35;;;;;;;;;;;;;;;;;;5037992;28;7627;-87
2022/09/16 03:09:02;;;;;;;;;;;;;;;;;;5037195;28;7050;-86
2022/09/16 03:11:37;;;;;;;;;;;;;;;;;;5037249;28;8777;-85
2022/09/16 03:14:09;;;;;;;;;;;;;;;;;;5037019;28;6993;-85
2022/09/16 03:16:45;;;;;;;;;;;;;;;;;;5036742;28;7050;-86
2022/09/16 03:19:14;;;;;;;;;;;;;;;;;;5037058;28;7261;-85
2022/09/16 03:21:46;;;;;;;;;;;;;;;;;;5037044;28;7056;-86
2022/09/16 03:24:31;;;;;;;;;;;;;;;;;;5036918;28;7174;-85
2022/09/16 03:27:07;;;;;;;;;;;;;;;;;;5037098;28;8701;-85
2022/09/16 03:29:45;;;;;;;;;;;;;;;;;;5037847;28;8833;-85
2022/09/16 03:32:20;;;;;;;;;;;;;;;;;;5036882;28;7200;-86
2022/09/16 03:34:51;;;;;;;;;;;;;;;;;;5036529;28;8589;-85
2022/09/16 03:37:19;;;;;;;;;;;;;;;;;;5037081;28;8543;-86
2022/09/16 03:39:52;;;;;;;;;;;;;;;;;;5038932;28;7327;-87
2022/09/16 03:42:19;;;;;;;;;;;;;;;;;;5036390;28;7035;-86
2022/09/16 03:44:44;;;;;;;;;;;;;;;;;;5036949;28;8334;-87
2022/09/16 03:47:10;;;;;;;;;;;;;;;;;;5036528;28;8371;-87
2022/09/16 03:49:36;;;;;;;;;;;;;;;;;;5036684;28;8435;-86
2022/09/16 03:52:06;;;;;;;;;;;;;;;;;;5036783;28;7176;-86
2022/09/16 03:54:32;;;;;;;;;;;;;;;;;;5036082;28;8544;-86
2022/09/16 03:56:59;;;;;;;;;;;;;;;;;;5036874;28;7123;-85
2022/09/16 03:59:25;;;;;;;;;;;;;;;;;;5035937;28;7439;-86
2022/09/16 04:01:50;;;;;;;;;;;;;;;;;;5035860;28;8484;-85
2022/09/16 04:04:16;;;;;;;;;;;;;;;;;;5035799;28;7153;-85
2022/09/16 04:06:41;;;;;;;;;;;;;;;;;;5036117;28;7342;-86
2022/09/16 04:09:11;;;;;;;;;;;;;;;;;;5035886;28;6993;-86
2022/09/16 04:11:37;;;;;;;;;;;;;;;;;;5035997;28;7165;-87
2022/09/16 04:14:04;;;;;;;;;;;;;;;;;;5036318;28;8733;-87
2022/09/16 04:16:30;;;;;;;;;;;;;;;;;;5036385;28;8388;-85
2022/09/16 04:18:55;;;;;;;;;;;;;;;;;;5035536;28;8449;-86
2022/09/16 04:21:21;;;;;;;;;;;;;;;;;;5036339;28;6944;-84
2022/09/16 04:23:48;;;;;;;;;;;;;;;;;;5035470;28;8414;-85
2022/09/16 04:26:13;;;;;;;;;;;;;;;;;;5036472;28;7113;-87
2022/09/16 04:28:39;;;;;;;;;;;;;;;;;;5035562;28;7125;-85
2022/09/16 04:31:07;;;;;;;;;;;;;;;;;;5035696;28;8401;-84
2022/09/16 04:33:34;;;;;;;;;;;;;;;;;;5035727;28;8645;-86
2022/09/16 04:36:02;;;;;;;;;;;;;;;;;;5035689;28;7027;-85
2022/09/16 04:38:28;;;;;;;;;;;;;;;;;;5036006;28;7052;-86
2022/09/16 04:40:59;;;;;;;;;;;;;;;;;;5035628;28;8989;-86
2022/09/16 04:43:25;;;;;;;;;;;;;;;;;;5035881;28;7190;-86
2022/09/16 04:45:51;;;;;;;;;;;;;;;;;;5035542;28;8421;-86
2022/09/16 04:48:16;;;;;;;;;;;;;;;;;;5035361;28;6955;-86
2022/09/16 04:50:42;;;;;;;;;;;;;;;;;;5035567;28;7059;-86
2022/09/16 04:53:08;;;;;;;;;;;;;;;;;;5035279;28;7414;-86
2022/09/16 04:55:33;;;;;;;;;;;;;;;;;;5035319;28;8246;-85
2022/09/16 04:58:00;;;;;;;;;;;;;;;;;;5034705;28;7054;-85
2022/09/16 05:00:25;;;;;;;;;;;;;;;;;;5035000;28;7133;-85
2022/09/16 05:02:53;;;;;;;;;;;;;;;;;;5035205;28;7056;-86
2022/09/16 05:05:20;;;;;;;;;;;;;;;;;;5035098;28;8343;-86
2022/09/16 05:07:45;;;;;;;;;;;;;;;;;;5034955;28;8283;-86
2022/09/16 05:10:11;;;;;;;;;;;;;;;;;;5035415;28;7755;-86
2022/09/16 05:12:37;;;;;;;;;;;;;;;;;;5035308;28;8426;-86
2022/09/16 05:15:02;;;;;;;;;;;;;;;;;;5034744;28;8379;-85
2022/09/16 05:17:29;;;;;;;;;;;;;;;;;;5034909;28;8378;-85
2022/09/16 05:19:54;;;;;;;;;;;;;;;;;;5034641;28;7091;-85
2022/09/16 05:22:20;;;;;;;;;;;;;;;;;;5035196;28;7015;-87
2022/09/16 05:24:46;;;;;;;;;;;;;;;;;;5034684;28;7430;-86
2022/09/16 05:27:12;;;;;;;;;;;;;;;;;;5034702;28;7131;-85
2022/09/16 05:29:37;;;;;;;;;;;;;;;;;;5034336;28;7178;-87
2022/09/16 05:32:02;;;;;;;;;;;;;;;;;;5034508;28;8505;-87
2022/09/16 05:34:28;;;;;;;;;;;;;;;;;;5034504;28;6971;-85
2022/09/16 05:36:55;;;;;;;;;;;;;;;;;;5034163;28;8655;-86
2022/09/16 05:39:21;;;;;;;;;;;;;;;;;;5034184;28;7244;-86
2022/09/16 05:41:48;;;;;;;;;;;;;;;;;;5034549;28;8414;-85
2022/09/16 05:44:13;;;;;;;;;;;;;;;;;;5034212;28;7228;-86
2022/09/16 05:46:40;;;;;;;;;;;;;;;;;;5034452;28;8464;-87
2022/09/16 05:49:06;;;;;;;;;;;;;;;;;;5034335;28;7039;-86
2022/09/16 05:51:32;;;;;;;;;;;;;;;;;;5034231;28;7105;-85
2022/09/16 05:53:58;;;;;;;;;;;;;;;;;;5034089;28;7172;-86
2022/09/16 05:56:25;;;;;;;;;;;;;;;;;;5034459;28;7351;-86
2022/09/16 05:58:52;;;;;;;;;;;;;;;;;;5034111;28;7125;-86
2022/09/16 06:01:22;;;;;;;;;;;;;;;;;;5034235;28;8320;-86
2022/09/16 06:03:49;;;;;;;;;;;;;;;;;;5033587;28;8389;-85
2022/09/16 06:06:22;;;;;;;;;;;;;;;;;;5033328;28;7174;-87
2022/09/16 06:08:48;;;;;;;;;;;;;;;;;;5034009;28;8712;-87
2022/09/16 06:11:14;;;;;;;;;;;;;;;;;;5033932;28;6940;-86
2022/09/16 06:13:40;;;;;;;;;;;;;;;;;;5033828;28;7132;-81
2022/09/16 06:16:08;;;;;;;;;;;;;;;;;;5033590;28;8433;-86
2022/09/16 06:18:35;;;;;;;;;;;;;;;;;;5034184;28;7765;-87
2022/09/16 06:21:05;;;;;;;;;;;;;;;;;;5032070;28;7058;-85
2022/09/16 06:23:31;;;;;;;;;;;;;;;;;;5031936;28;7034;-87
2022/09/16 06:26:08;;;;;;;;;;;;;;;;;;5032440;28;6986;-85
2022/09/16 06:28:33;;;;;;;;;;;;;;;;;;5032184;28;7202;-87
2022/09/16 06:31:10;;;;;;;;;;;;;;;;;;5032120;28;7161;-86
2022/09/16 06:33:36;;;;;;;;;;;;;;;;;;5032437;28;8448;-86
2022/09/16 06:36:10;;;;;;;;;;;;;;;;;;5033610;28;7158;-85
2022/09/16 06:38:35;;;;;;;;;;;;;;;;;;5033353;28;8472;-86
2022/09/16 06:41:03;;;;;;;;;;;;;;;;;;5033727;28;8395;-87
2022/09/16 06:43:29;;;;;;;;;;;;;;;;;;5033666;28;8481;-86
2022/09/16 06:46:04;;;;;;;;;;;;;;;;;;5033337;28;8354;-84
2022/09/16 06:48:33;;;;;;;;;;;;;;;;;;5033856;28;7208;-85
2022/09/16 06:51:03;;;;;;;;;;;;;;;;;;5033631;28;8732;-83
2022/09/16 06:53:29;;;;;;;;;;;;;;;;;;5034102;28;7482;-86
2022/09/16 06:55:58;;;;;;;;;;;;;;;;;;5033618;28;8464;-86
2022/09/16 06:58:24;;;;;;;;;;;;;;;;;;5033790;28;8409;-86
2022/09/16 07:00:50;;;;;;;;;;;;;;;;;;5034053;28;6927;-84
2022/09/16 07:03:15;;;;;;;;;;;;;;;;;;5033388;28;7146;-86
2022/09/16 07:05:41;;;;;;;;;;;;;;;;;;5033649;28;8381;-86
2022/09/16 07:08:06;;;;;;;;;;;;;;;;;;5032474;28;7122;-87
2022/09/16 07:10:32;;;;;;;;;;;;;;;;;;5032924;28;7337;-86
2022/09/16 07:12:57;;;;;;;;;;;;;;;;;;5032688;28;7006;-86
2022/09/16 07:15:23;;;;;;;;;;;;;;;;;;5033047;28;8377;-85
2022/09/16 07:17:52;;;;;;;;;;;;;;;;;;5033377;28;8394;-86
2022/09/16 07:20:17;;;;;;;;;;;;;;;;;;5033009;28;8401;-87
2022/09/16 07:22:43;;;;;;;;;;;;;;;;;;5034315;28;7173;-87
2022/09/16 07:25:09;;;;;;;;;;;;;;;;;;5037702;28;7261;-87
2022/09/16 07:27:35;;;;;;;;;;;;;;;;;;5036594;28;7039;-87
2022/09/16 07:30:00;;;;;;;;;;;;;;;;;;5036851;28;7101;-88
2022/09/16 07:32:26;;;;;;;;;;;;;;;;;;5036882;28;8535;-86
2022/09/16 07:34:52;;;;;;;;;;;;;;;;;;5037245;28;8495;-87
2022/09/16 07:37:18;;;;;;;;;;;;;;;;;;5036596;28;7078;-87
2022/09/16 07:39:44;;;;;;;;;;;;;;;;;;5036872;28;7212;-86
2022/09/16 07:42:10;;;;;;;;;;;;;;;;;;5036230;28;8439;-86
2022/09/16 07:44:36;;;;;;;;;;;;;;;;;;5036648;28;8628;-86
2022/09/16 07:47:01;;;;;;;;;;;;;;;;;;5036641;28;8638;-86
2022/09/16 07:49:27;;;;;;;;;;;;;;;;;;5036560;28;9218;-87
2022/09/16 07:51:52;;;;;;;;;;;;;;;;;;5036532;28;8494;-86
2022/09/16 07:54:18;;;;;;;;;;;;;;;;;;5036451;28;7256;-86
2022/09/16 07:56:44;;;;;;;;;;;;;;;;;;5036827;28;7174;-87
2022/09/16 07:59:12;;;;;;;;;;;;;;;;;;5036193;28;7052;-86
2022/09/16 08:01:38;;;;;;;;;;;;;;;;;;5036227;28;7178;-86
2022/09/16 08:04:03;;;;;;;;;;;;;;;;;;5036504;28;8319;-88
2022/09/16 08:06:30;;;;;;;;;;;;;;;;;;5036827;28;7021;-87
2022/09/16 08:08:58;;;;;;;;;;;;;;;;;;5036166;28;8680;-86
2022/09/16 08:11:28;;;;;;;;;;;;;;;;;;5036732;28;7365;-88
2022/09/16 08:13:53;;;;;;;;;;;;;;;;;;5035794;28;7204;-87
2022/09/16 08:16:20;;;;;;;;;;;;;;;;;;5035813;28;8471;-86
2022/09/16 08:18:47;;;;;;;;;;;;;;;;;;5036134;28;8499;-86
2022/09/16 08:21:14;;;;;;;;;;;;;;;;;;5036513;28;7139;-86
2022/09/16 08:23:40;;;;;;;;;;;;;;;;;;5036226;28;8496;-86
2022/09/16 08:26:09;;;;;;;;;;;;;;;;;;5035862;28;8968;-86
2022/09/16 08:28:36;;;;;;;;;;;;;;;;;;5035495;28;7039;-84
2022/09/16 08:31:02;;;;;;;;;;;;;;;;;;5035753;28;7273;-84
2022/09/16 08:33:28;;;;;;;;;;;;;;;;;;5035941;28;7427;-84
2022/09/16 08:36:07;;;;;;;;;;;;;;;;;;5035497;28;7136;-84
2022/09/16 08:38:33;;;;;;;;;;;;;;;;;;5035595;28;7137;-88
2022/09/16 08:41:04;;;;;;;;;;;;;;;;;;5035217;28;8621;-87
2022/09/16 08:43:36;;;;;;;;;;;;;;;;;;5035285;28;7029;-87
2022/09/16 08:46:11;;;;;;;;;;;;;;;;;;5036674;28;7215;-88
2022/09/16 08:48:36;;;;;;;;;;;;;;;;;;5035187;28;8497;-87
2022/09/16 08:51:04;;;;;;;;;;;;;;;;;;5035682;28;7318;-87
2022/09/16 08:53:39;;;;;;;;;;;;;;;;;;5035234;28;8382;-86
2022/09/16 08:56:10;;;;;;;;;;;;;;;;;;5035572;28;8494;-85
2022/09/16 08:58:42;;;;;;;;;;;;;;;;;;5035391;28;8524;-84
2022/09/16 09:01:34;;;;;;;;;;;;;;;;;;5034973;28;8451;-86
2022/09/16 09:04:01;;;;;;;;;;;;;;;;;;5031625;28;7071;-87
2022/09/16 09:06:42;;;;;;;;;;;;;;;;;;5035258;28;8417;-86
2022/09/16 09:09:30;;;;;;;;;;;;;;;;;;5034856;28;8495;-87
2022/09/16 09:12:08;;;;;;;;;;;;;;;;;;5024468;28;7132;-86
2022/09/16 09:14:51;;;;;;;;;;;;;;;;;;5034933;28;7392;-85
2022/09/16 09:17:45;;;;;;;;;;;;;;;;;;5034962;28;8520;-84
2022/09/16 09:20:11;;;;;;;;;;;;;;;;;;5034632;28;7194;-88
2022/09/16 09:22:43;;;;;;;;;;;;;;;;;;5034973;28;8769;-87
2022/09/16 09:25:08;;;;;;;;;;;;;;;;;;5034764;28;8466;-87
2022/09/16 09:27:41;;;;;;;;;;;;;;;;;;5034770;28;7073;-84
2022/09/16 09:30:10;;;;;;;;;;;;;;;;;;5035322;28;8596;-87
2022/09/16 09:32:46;;;;;;;;;;;;;;;;;;5034465;28;7340;-87
2022/09/16 09:35:30;;;;;;;;;;;;;;;;;;5035262;28;7057;-86
2022/09/16 09:37:56;;;;;;;;;;;;;;;;;;5034409;28;8521;-87
2022/09/16 09:40:38;;;;;;;;;;;;;;;;;;5034063;28;8614;-87
2022/09/16 09:43:24;;;;;;;;;;;;;;;;;;5034739;28;8449;-87
2022/09/16 09:46:03;;;;;;;;;;;;;;;;;;5032223;28;7456;-86
2022/09/16 09:48:34;;;;;;;;;;;;;;;;;;5032615;28;7053;-87
2022/09/16 09:51:06;;;;;;;;;;;;;;;;;;5033602;28;8942;-87
2022/09/16 09:53:52;;;;;;;;;;;;;;;;;;5039502;28;8453;-87
2022/09/16 09:56:25;;;;;;;;;;;;;;;;;;5031475;28;7183;-87
2022/09/16 09:59:08;;;;;;;;;;;;;;;;;;5050168;28;8508;-86
2022/09/16 10:01:33;;;;;;;;;;;;;;;;;;5049951;28;8753;-86
2022/09/16 10:03:59;;;;;;;;;;;;;;;;;;5050114;28;7160;-86
2022/09/16 10:06:28;;;;;;;;;;;;;;;;;;5050174;28;8429;-87
2022/09/16 10:08:56;;;;;;;;;;;;;;;;;;5050339;28;8975;-89
2022/09/16 10:11:24;;;;;;;;;;;;;;;;;;5050262;28;8441;-87
2022/09/16 10:13:51;;;;;;;;;;;;;;;;;;5046243;28;8505;-87
2022/09/16 10:16:19;;;;;;;;;;;;;;;;;;5032934;28;8362;-88
2022/09/16 10:18:54;;;;;;;;;;;;;;;;;;5028993;28;6918;-87
2022/09/16 10:21:20;;;;;;;;;;;;;;;;;;5027832;28;7084;-87
2022/09/16 10:23:53;;;;;;;;;;;;;;;;;;5033694;28;8397;-87
2022/09/16 10:26:21;;;;;;;;;;;;;;;;;;5022376;28;8483;-86
2022/09/16 10:29:05;;;;;;;;;;;;;;;;;;5023699;28;8511;-86
2022/09/16 10:31:41;;;;;;;;;;;;;;;;;;5014428;28;8720;-87
2022/09/16 10:34:28;;;;;;;;;;;;;;;;;;5050562;28;8736;-88
2022/09/16 10:37:00;;;;;;;;;;;;;;;;;;5036323;28;8483;-88
2022/09/16 10:39:27;;;;;;;;;;;;;;;;;;5014320;28;8470;-89
2022/09/16 10:41:53;;;;;;;;;;;;;;;;;;5013553;28;7071;-89
2022/09/16 10:44:25;;;;;;;;;;;;;;;;;;5013898;28;7155;-87
2022/09/16 10:46:57;;;;;;;;;;;;;;;;;;5014067;28;8661;-87
2022/09/16 10:49:43;;;;;;;;;;;;;;;;;;5014026;28;7145;-88
2022/09/16 10:52:15;;;;;;;;;;;;;;;;;;5014472;28;7039;-87
2022/09/16 10:54:40;;;;;;;;;;;;;;;;;;5014002;28;7068;-87
2022/09/16 10:57:20;;;;;;;;;;;;;;;;;;5014689;28;6973;-87
2022/09/16 11:00:07;;;;;;;;;;;;;;;;;;5017899;28;7185;-88
2022/09/16 11:02:33;;;;;;;;;;;;;;;;;;5026968;28;7262;-88
2022/09/16 11:04:58;;;;;;;;;;;;;;;;;;5034102;28;7146;-86
2022/09/16 11:07:47;;;;;;;;;;;;;;;;;;5034076;28;8399;-87
2022/09/16 11:10:18;;;;;;;;;;;;;;;;;;5015227;28;7501;-87
2022/09/16 11:13:03;;;;;;;;;;;;;;;;;;5033927;28;8378;-84
2022/09/16 11:15:29;;;;;;;;;;;;;;;;;;5033899;28;7186;-85
2022/09/16 11:18:23;;;;;;;;;;;;;;;;;;5033516;28;8288;-85
2022/09/16 11:20:49;;;;;;;;;;;;;;;;;;4999410;28;8736;-84
2022/09/16 11:23:22;;;;;;;;;;;;;;;;;;5034055;28;8384;-86
2022/09/16 11:25:48;;;;;;;;;;;;;;;;;;5033800;28;7071;-84
2022/09/16 11:28:25;;;;;;;;;;;;;;;;;;5033481;28;8610;-86
2022/09/16 11:30:54;;;;;;;;;;;;;;;;;;5032617;28;8457;-87
2022/09/16 11:33:34;;;;;;;;;;;;;;;;;;5033146;28;8522;-87
2022/09/16 11:36:12;;;;;;;;;;;;;;;;;;5033697;28;8320;-88
2022/09/16 11:38:38;;;;;;;;;;;;;;;;;;5016918;28;7042;-87
2022/09/16 11:41:26;;;;;;;;;;;;;;;;;;5031859;28;7158;-85
2022/09/16 11:44:10;;;;;;;;;;;;;;;;;;5025597;28;7287;-86
2022/09/16 11:46:39;;;;;;;;;;;;;;;;;;5015347;28;8449;-87
2022/09/16 11:49:13;;;;;;;;;;;;;;;;;;5031356;28;8559;-87
2022/09/16 11:51:56;;;;;;;;;;;;;;;;;;5031315;28;8454;-86
2022/09/16 11:54:28;;;;;;;;;;;;;;;;;;5015326;28;7174;-87
2022/09/16 11:57:01;;;;;;;;;;;;;;;;;;5032666;28;7000;-87
2022/09/16 11:59:29;;;;;;;;;;;;;;;;;;5016843;28;8772;-89
2022/09/16 12:02:02;;;;;;;;;;;;;;;;;;5032887;28;7137;-86
2022/09/16 12:04:31;;;;;;;;;;;;;;;;;;5016654;28;8881;-88
2022/09/16 12:07:05;;;;;;;;;;;;;;;;;;5016450;28;7188;-88
2022/09/16 12:09:37;;;;;;;;;;;;;;;;;;5015838;28;8706;-87
2022/09/16 12:12:13;;;;;;;;;;;;;;;;;;5016890;28;8473;-87
2022/09/16 12:14:45;;;;;;;;;;;;;;;;;;5016361;28;7128;-87
2022/09/16 12:17:19;;;;;;;;;;;;;;;;;;5016619;28;8415;-88
2022/09/16 12:19:47;;;;;;;;;;;;;;;;;;5016075;28;7371;-88
2022/09/16 12:22:22;;;;;;;;;;;;;;;;;;5032814;28;7168;-88
2022/09/16 12:24:56;;;;;;;;;;;;;;;;;;5016837;28;8051;-88
2022/09/16 12:27:21;;;;;;;;;;;;;;;;;;5015980;28;7007;-87
2022/09/16 12:29:55;;;;;;;;;;;;;;;;;;5032255;28;7044;-86
2022/09/16 12:32:43;;;;;;;;;;;;;;;;;;5016683;28;8378;-87
2022/09/16 12:35:19;;;;;;;;;;;;;;;;;;5016408;28;7058;-88
2022/09/16 12:37:49;;;;;;;;;;;;;;;;;;5016272;28;8562;-89
2022/09/16 12:40:23;;;;;;;;;;;;;;;;;;5015994;28;7127;-88
2022/09/16 12:42:54;;;;;;;;;;;;;;;;;;5016105;28;7459;-86
2022/09/16 12:45:38;;;;;;;;;;;;;;;;;;5032401;28;8470;-89
2022/09/16 12:48:27;;;;;;;;;;;;;;;;;;5032248;28;8688;-87
2022/09/16 12:51:07;;;;;;;;;;;;;;;;;;5014868;28;8448;-89
2022/09/16 12:53:38;;;;;;;;;;;;;;;;;;5015437;28;8316;-86
2022/09/16 12:56:27;;;;;;;;;;;;;;;;;;5031968;28;8596;-87
2022/09/16 12:59:10;;;;;;;;;;;;;;;;;;5026285;28;7450;-87
2022/09/16 13:01:42;;;;;;;;;;;;;;;;;;5015652;28;7184;-87
2022/09/16 13:04:08;;;;;;;;;;;;;;;;;;5016159;28;7168;-89
2022/09/16 13:06:37;;;;;;;;;;;;;;;;;;5032355;28;9456;-88
2022/09/16 13:09:14;;;;;;;;;;;;;;;;;;5016068;28;7285;-87
2022/09/16 13:11:41;;;;;;;;;;;;;;;;;;5015588;28;8430;-89
2022/09/16 13:14:20;;;;;;;;;;;;;;;;;;5015449;28;7473;-87
2022/09/16 13:16:52;;;;;;;;;;;;;;;;;;5015471;28;7395;-88
2022/09/16 13:19:24;;;;;;;;;;;;;;;;;;5015459;28;8473;-90
2022/09/16 13:21:55;;;;;;;;;;;;;;;;;;5031443;28;7076;-88
2022/09/16 13:24:34;;;;;;;;;;;;;;;;;;5016170;28;7430;-88
2022/09/16 13:26:59;;;;;;;;;;;;;;;;;;5015091;28;7184;-87
2022/09/16 13:29:37;;;;;;;;;;;;;;;;;;5014877;28;8405;-88
2022/09/16 13:32:03;;;;;;;;;;;;;;;;;;5031075;28;8415;-86
2022/09/16 13:34:29;;;;;;;;;;;;;;;;;;5014839;28;7177;-87
2022/09/16 13:36:56;;;;;;;;;;;;;;;;;;5014885;28;7168;-88
2022/09/16 13:39:30;;;;;;;;;;;;;;;;;;5015091;28;7403;-89
2022/09/16 13:41:55;;;;;;;;;;;;;;;;;;5014731;28;8325;-88
2022/09/16 13:44:38;;;;;;;;;;;;;;;;;;5014869;28;8340;-88
2022/09/16 13:47:10;;;;;;;;;;;;;;;;;;5031922;28;7206;-88
2022/09/16 13:49:41;;;;;;;;;;;;;;;;;;5031400;28;8454;-87
2022/09/16 13:52:12;;;;;;;;;;;;;;;;;;5015147;28;7443;-88
2022/09/16 13:54:42;;;;;;;;;;;;;;;;;;5014497;28;8451;-87
2022/09/16 13:57:19;;;;;;;;;;;;;;;;;;5014266;28;8388;-87
2022/09/16 13:59:45;;;;;;;;;;;;;;;;;;5014881;28;8359;-87
2022/09/16 14:02:11;;;;;;;;;;;;;;;;;;5031720;28;8612;-88
2022/09/16 14:04:55;;;;;;;;;;;;;;;;;;5031034;28;9370;-88
2022/09/16 14:07:36;;;;;;;;;;;;;;;;;;5030997;28;7045;-91
2022/09/16 14:10:17;;;;;;;;;;;;;;;;;;5030973;28;7157;-88
2022/09/16 14:13:06;;;;;;;;;;;;;;;;;;5014315;28;7050;-87
2022/09/16 14:15:39;;;;;;;;;;;;;;;;;;5014369;28;7470;-88
2022/09/16 14:18:08;;;;;;;;;;;;;;;;;;5014766;28;8313;-87
2022/09/16 14:20:34;;;;;;;;;;;;;;;;;;5013378;28;7051;-82
2022/09/16 14:23:01;;;;;;;;;;;;;;;;;;5014229;28;8344;-85
2022/09/16 14:25:35;;;;;;;;;;;;;;;;;;5014148;28;7062;-86
2022/09/16 14:28:21;;;;;;;;;;;;;;;;;;5014287;28;8558;-85
2022/09/16 14:30:52;;;;;;;;;;;;;;;;;;5014837;28;7532;-85
2022/09/16 14:33:24;;;;;;;;;;;;;;;;;;5036219;28;8441;-85
2022/09/16 14:35:53;;;;;;;;;;;;;;;;;;5020230;28;8559;-85
2022/09/16 14:38:20;;;;;;;;;;;;;;;;;;5020556;28;8846;-85
2022/09/16 14:40:46;;;;;;;;;;;;;;;;;;5020240;28;8426;-84
2022/09/16 14:43:19;;;;;;;;;;;;;;;;;;5020109;28;7071;-85
2022/09/16 14:45:48;;;;;;;;;;;;;;;;;;5019750;28;8560;-85
2022/09/16 14:48:16;;;;;;;;;;;;;;;;;;5020853;28;8429;-85
2022/09/16 14:50:45;;;;;;;;;;;;;;;;;;5020481;28;8668;-85
2022/09/16 14:53:27;;;;;;;;;;;;;;;;;;5020225;28;8866;-85
2022/09/16 14:55:53;;;;;;;;;;;;;;;;;;5020146;28;8752;-85
2022/09/16 14:58:21;;;;;;;;;;;;;;;;;;5020552;28;7800;-85
2022/09/16 15:00:53;;;;;;;;;;;;;;;;;;5020234;28;8475;-84
2022/09/16 15:03:29;;;;;;;;;;;;;;;;;;5020282;28;7223;-85
2022/09/16 15:05:58;;;;;;;;;;;;;;;;;;5020355;28;7028;-85
2022/09/16 15:08:29;;;;;;;;;;;;;;;;;;5020163;28;7622;-85
2022/09/16 15:11:05;;;;;;;;;;;;;;;;;;5020718;28;7070;-84
2022/09/16 15:13:37;;;;;;;;;;;;;;;;;;5019725;28;7459;-87
2022/09/16 15:16:06;;;;;;;;;;;;;;;;;;5019963;28;8794;-85
2022/09/16 15:18:34;;;;;;;;;;;;;;;;;;5036330;28;8545;-84
2022/09/16 15:20:59;;;;;;;;;;;;;;;;;;5019870;28;7051;-84
2022/09/16 15:23:27;;;;;;;;;;;;;;;;;;5036297;28;8564;-84
2022/09/16 15:25:55;;;;;;;;;;;;;;;;;;5020350;28;8453;-86
2022/09/16 15:28:21;;;;;;;;;;;;;;;;;;5020686;28;7033;-85
2022/09/16 15:30:49;;;;;;;;;;;;;;;;;;5020585;28;9631;-85
2022/09/16 15:33:41;;;;;;;;;;;;;;;;;;5020577;28;7362;-86
2022/09/16 15:36:26;;;;;;;;;;;;;;;;;;5034103;28;8707;-85
2022/09/16 15:38:58;;;;;;;;;;;;;;;;;;5019514;28;8507;-83
2022/09/16 15:41:24;;;;;;;;;;;;;;;;;;5019723;28;8434;-85
2022/09/16 15:43:50;;;;;;;;;;;;;;;;;;5016533;28;8701;-85
2022/09/16 15:46:23;;;;;;;;;;;;;;;;;;5016067;28;8420;-84
2022/09/16 15:48:51;;;;;;;;;;;;;;;;;;5017061;28;8536;-85
2022/09/16 15:51:55;;;;;;;;;;;;;;;;;;5016555;28;7174;-85
2022/09/16 15:54:20;;;;;;;;;;;;;;;;;;4995900;28;8645;-86
2022/09/16 15:57:10;;;;;;;;;;;;;;;;;;4996484;28;7442;-85
2022/09/16 15:59:35;;;;;;;;;;;;;;;;;;4995324;28;8303;-85
2022/09/16 16:02:06;;;;;;;;;;;;;;;;;;4995921;28;7028;-86
2022/09/16 16:04:33;;;;;;;;;;;;;;;;;;4996128;28;7199;-84
2022/09/16 16:07:00;;;;;;;;;;;;;;;;;;4995892;28;8504;-86
2022/09/16 16:09:26;;;;;;;;;;;;;;;;;;4996007;28;7438;-86
2022/09/16 16:12:01;;;;;;;;;;;;;;;;;;4995871;28;8440;-87
2022/09/16 16:14:31;;;;;;;;;;;;;;;;;;4995482;28;7066;-86
2022/09/16 16:17:02;;;;;;;;;;;;;;;;;;4995995;28;8434;-86
2022/09/16 16:19:28;;;;;;;;;;;;;;;;;;4996007;28;8462;-85
2022/09/16 16:21:55;;;;;;;;;;;;;;;;;;4995882;28;7181;-86
2022/09/16 16:24:25;;;;;;;;;;;;;;;;;;5000029;28;7133;-86
2022/09/16 16:26:51;;;;;;;;;;;;;;;;;;5017409;28;7196;-85
2022/09/16 16:29:17;;;;;;;;;;;;;;;;;;5016187;28;8556;-86
2022/09/16 16:32:01;;;;;;;;;;;;;;;;;;5015744;28;8631;-86
2022/09/16 16:34:27;;;;;;;;;;;;;;;;;;5032220;28;8767;-86
2022/09/16 16:36:53;;;;;;;;;;;;;;;;;;5015545;28;7439;-87
2022/09/16 16:39:20;;;;;;;;;;;;;;;;;;5015898;28;7011;-87
2022/09/16 16:41:45;;;;;;;;;;;;;;;;;;5015369;28;7451;-88
2022/09/16 16:44:11;;;;;;;;;;;;;;;;;;5015914;28;7089;-86
2022/09/16 16:46:36;;;;;;;;;;;;;;;;;;5015590;28;8690;-85
2022/09/16 16:49:03;;;;;;;;;;;;;;;;;;5015508;28;8425;-85
2022/09/16 16:51:29;;;;;;;;;;;;;;;;;;5015603;28;7179;-86
2022/09/16 16:53:55;;;;;;;;;;;;;;;;;;5015231;28;8286;-84
2022/09/16 16:56:21;;;;;;;;;;;;;;;;;;5014260;28;7169;-85
2022/09/16 16:58:47;;;;;;;;;;;;;;;;;;5015084;28;7152;-85
2022/09/16 17:01:15;;;;;;;;;;;;;;;;;;5015367;28;7328;-85
2022/09/16 17:03:41;;;;;;;;;;;;;;;;;;5015515;28;7226;-85
2022/09/16 17:06:07;;;;;;;;;;;;;;;;;;5015345;28;7342;-85
2022/09/16 17:08:34;;;;;;;;;;;;;;;;;;5015508;28;7355;-85
2022/09/16 17:11:06;;;;;;;;;;;;;;;;;;5015789;28;7172;-85
2022/09/16 17:13:32;;;;;;;;;;;;;;;;;;5031499;28;8453;-85
2022/09/16 17:15:58;;;;;;;;;;;;;;;;;;5015078;28;6996;-85
2022/09/16 17:18:23;;;;;;;;;;;;;;;;;;5015145;28;7036;-86
2022/09/16 17:20:49;;;;;;;;;;;;;;;;;;5015180;28;7237;-85
2022/09/16 17:23:15;;;;;;;;;;;;;;;;;;5014945;28;7132;-85
2022/09/16 17:25:40;;;;;;;;;;;;;;;;;;5014845;28;8719;-86